createdAt,value
2018-08-24T00:00:20.568Z,82.28
2018-08-24T00:02:47.539Z,82.38
2018-08-24T00:05:14.636Z,82.92
2018-08-24T00:07:41.736Z,82.64
2018-08-24T00:10:09.096Z,83.54
2018-08-24T00:12:36.152Z,83.58
2018-08-24T00:15:03.175Z,83.36
2018-08-24T00:17:30.875Z,83.35
2018-08-24T00:19:58.260Z,83.65
2018-08-24T00:22:25.239Z,83.65
2018-08-24T00:24:52.707Z,84.09
2018-08-24T00:27:19.831Z,84.50
2018-08-24T00:29:46.799Z,84.70
2018-08-24T00:32:13.769Z,84.49
2018-08-24T00:34:40.792Z,84.42
2018-08-24T00:37:07.780Z,85.25
2018-08-24T00:39:34.792Z,85.17
2018-08-24T00:42:02.070Z,85.13
2018-08-24T00:44:29.129Z,85.73
2018-08-24T00:46:56.191Z,85.26
2018-08-24T00:49:23.636Z,85.32
2018-08-24T00:51:50.677Z,85.66
2018-08-24T00:54:17.676Z,85.82
2018-08-24T00:56:44.695Z,85.43
2018-08-24T00:59:11.720Z,85.72
2018-08-24T01:01:38.710Z,85.77
2018-08-24T01:04:05.729Z,85.80
2018-08-24T01:06:33.224Z,85.78
2018-08-24T01:09:00.195Z,86.39
2018-08-24T01:11:33.154Z,85.89
2018-08-24T01:14:00.231Z,85.85
2018-08-24T01:16:32.917Z,85.69
2018-08-24T01:18:59.916Z,86.14
2018-08-24T01:21:26.903Z,85.70
2018-08-24T01:23:53.927Z,86.45
2018-08-24T01:26:21.147Z,85.84
2018-08-24T01:28:48.223Z,85.82
2018-08-24T01:31:15.575Z,85.84
2018-08-24T01:33:42.544Z,86.26
2018-08-24T01:36:09.539Z,86.28
2018-08-24T01:38:36.579Z,86.95
2018-08-24T01:41:03.651Z,86.12
2018-08-24T01:43:30.711Z,86.11
2018-08-24T01:46:03.532Z,86.53
2018-08-24T01:48:30.492Z,86.83
2018-08-24T01:50:57.484Z,86.55
2018-08-24T01:53:24.843Z,87.05
2018-08-24T01:55:51.816Z,86.28
2018-08-24T01:58:18.817Z,86.70
2018-08-24T02:00:45.820Z,87.01
2018-08-24T02:03:12.792Z,87.13
2018-08-24T02:05:40.075Z,86.81
2018-08-24T02:08:07.156Z,86.37
2018-08-24T02:10:34.140Z,86.30
2018-08-24T02:13:06.818Z,86.83
2018-08-24T02:15:33.975Z,86.82
2018-08-24T02:18:06.683Z,86.77
2018-08-24T02:20:39.432Z,86.19
2018-08-24T02:23:12.851Z,86.19
2018-08-24T02:25:40.516Z,86.73
2018-08-24T02:28:07.668Z,87.39
2018-08-24T02:30:34.701Z,89.74
2018-08-24T02:33:01.968Z,90.67
2018-08-24T02:35:29.057Z,93.02
2018-08-24T02:37:56.030Z,96.73
2018-08-24T02:40:23.004Z,100.00
2018-08-24T02:42:49.985Z,100.00
2018-08-24T02:45:16.980Z,100.00
2018-08-24T02:47:44.077Z,100.00
2018-08-24T02:50:11.080Z,100.00
2018-08-24T02:52:38.165Z,100.00
2018-08-24T02:55:05.256Z,100.00
2018-08-24T02:57:32.338Z,100.00
2018-08-24T02:59:59.443Z,100.00
2018-08-24T03:02:27.979Z,100.00
2018-08-24T03:04:55.067Z,100.00
2018-08-24T03:07:22.263Z,100.00
2018-08-24T03:09:49.284Z,100.00
2018-08-24T03:12:16.667Z,100.00
2018-08-24T03:14:43.656Z,100.00
2018-08-24T03:17:16.530Z,100.00
2018-08-24T03:19:43.511Z,100.00
2018-08-24T03:22:10.660Z,100.00
2018-08-24T03:24:38.160Z,100.00
2018-08-24T03:27:05.299Z,100.00
2018-08-24T03:29:32.372Z,100.00
2018-08-24T03:31:59.368Z,100.00
2018-08-24T03:34:26.355Z,100.00
2018-08-24T03:36:53.350Z,100.00
2018-08-24T03:39:20.379Z,100.00
2018-08-24T03:41:47.353Z,100.00
2018-08-24T03:44:14.364Z,100.00
2018-08-24T03:46:42.137Z,100.00
2018-08-24T03:49:09.115Z,100.00
2018-08-24T03:51:36.123Z,100.00
2018-08-24T03:54:07.772Z,100.00
2018-08-24T03:56:34.829Z,100.00
2018-08-24T03:59:01.882Z,100.00
2018-08-24T04:01:28.889Z,100.00
2018-08-24T04:03:55.892Z,100.00
2018-08-24T04:06:22.897Z,100.00
2018-08-24T04:08:49.951Z,100.00
2018-08-24T04:11:17.035Z,100.00
2018-08-24T04:13:44.028Z,100.00
2018-08-24T04:16:11.011Z,100.00
2018-08-24T04:18:38.004Z,100.00
2018-08-24T04:21:05.016Z,100.00
2018-08-24T04:23:31.992Z,100.00
2018-08-24T04:25:59.116Z,100.00
2018-08-24T04:28:26.020Z,100.00
2018-08-24T04:30:53.008Z,100.00
2018-08-24T04:33:20.303Z,100.00
2018-08-24T04:35:47.291Z,100.00
2018-08-24T04:38:14.351Z,100.00
2018-08-24T04:40:41.635Z,100.00
2018-08-24T04:43:08.624Z,100.00
2018-08-24T04:45:35.640Z,100.00
2018-08-24T04:48:03.290Z,100.00
2018-08-24T04:50:30.296Z,100.00
2018-08-24T04:52:57.293Z,100.00
2018-08-24T04:55:24.538Z,100.00
2018-08-24T04:57:51.516Z,100.00
2018-08-24T05:00:18.616Z,100.00
2018-08-24T05:02:45.637Z,100.00
2018-08-24T05:05:12.655Z,100.00
2018-08-24T05:07:39.723Z,100.00
2018-08-24T05:10:06.788Z,100.00
2018-08-24T05:12:33.893Z,100.00
2018-08-24T05:15:01.101Z,100.00
2018-08-24T05:17:28.678Z,100.00
2018-08-24T05:19:56.021Z,100.00
2018-08-24T05:22:23.019Z,100.00
2018-08-24T05:24:50.144Z,100.00
2018-08-24T05:27:17.038Z,100.00
2018-08-24T05:29:44.028Z,100.00
2018-08-24T05:32:11.015Z,100.00
2018-08-24T05:34:38.025Z,100.00
2018-08-24T05:37:05.015Z,100.00
2018-08-24T05:39:32.008Z,100.00
2018-08-24T05:41:59.447Z,100.00
2018-08-24T05:44:26.672Z,100.00
2018-08-24T05:46:53.662Z,100.00
2018-08-24T05:49:21.657Z,100.00
2018-08-24T05:51:48.739Z,100.00
2018-08-24T05:54:15.898Z,100.00
2018-08-24T05:56:43.159Z,100.00
2018-08-24T05:59:10.141Z,100.00
2018-08-24T06:01:37.155Z,100.00
2018-08-24T06:04:04.223Z,100.00
2018-08-24T06:06:31.567Z,100.00
2018-08-24T06:09:04.413Z,99.25
2018-08-24T06:11:31.532Z,100.00
2018-08-24T06:13:58.849Z,100.00
2018-08-24T06:16:25.851Z,100.00
2018-08-24T06:18:52.841Z,100.00
2018-08-24T06:21:19.860Z,99.04
2018-08-24T06:23:46.859Z,98.72
2018-08-24T06:26:13.841Z,98.56
2018-08-24T06:28:41.027Z,98.63
2018-08-24T06:31:08.379Z,99.85
2018-08-24T06:33:35.493Z,100.00
2018-08-24T06:36:02.492Z,98.87
2018-08-24T06:38:29.484Z,98.09
2018-08-24T06:40:56.571Z,98.14
2018-08-24T06:43:23.631Z,98.47
2018-08-24T06:45:50.617Z,98.34
2018-08-24T06:48:18.299Z,99.29
2018-08-24T06:50:45.423Z,96.90
2018-08-24T06:53:12.511Z,96.87
2018-08-24T06:55:39.484Z,98.50
2018-08-24T06:58:06.481Z,96.64
2018-08-24T07:00:33.478Z,96.58
2018-08-24T07:03:01.756Z,97.52
2018-08-24T07:05:29.092Z,97.07
2018-08-24T07:07:56.072Z,96.40
2018-08-24T07:10:23.520Z,95.87
2018-08-24T07:12:51.135Z,96.31
2018-08-24T07:15:18.167Z,97.53
2018-08-24T07:17:50.939Z,97.15
2018-08-24T07:20:18.019Z,96.65
2018-08-24T07:22:45.000Z,96.30
2018-08-24T07:25:12.028Z,95.41
2018-08-24T07:27:39.089Z,95.40
2018-08-24T07:30:06.116Z,96.21
2018-08-24T07:32:33.178Z,95.65
2018-08-24T07:35:00.242Z,94.67
2018-08-24T07:37:27.240Z,93.76
2018-08-24T07:39:54.228Z,93.86
2018-08-24T07:42:21.198Z,93.79
2018-08-24T07:44:51.316Z,93.20
2018-08-24T07:47:18.921Z,92.64
2018-08-24T07:49:45.977Z,91.90
2018-08-24T07:52:12.968Z,91.90
2018-08-24T07:54:39.976Z,91.37
2018-08-24T07:57:07.145Z,91.67
2018-08-24T07:59:34.065Z,90.41
2018-08-24T08:02:01.470Z,90.76
2018-08-24T08:04:29.812Z,90.25
2018-08-24T08:06:56.805Z,89.70
2018-08-24T08:09:23.905Z,89.09
2018-08-24T08:11:50.903Z,88.93
2018-08-24T08:14:17.915Z,88.10
2018-08-24T08:16:44.919Z,89.21
2018-08-24T08:19:11.994Z,87.71
2018-08-24T08:21:39.092Z,88.08
2018-08-24T08:24:06.144Z,87.75
2018-08-24T08:26:33.172Z,86.55
2018-08-24T08:29:00.148Z,86.84
2018-08-24T08:31:27.245Z,86.96
2018-08-24T08:33:54.257Z,86.05
2018-08-24T08:36:21.248Z,87.02
2018-08-24T08:38:48.366Z,85.51
2018-08-24T08:41:15.363Z,86.25
2018-08-24T08:43:42.364Z,84.75
2018-08-24T08:46:09.445Z,85.19
2018-08-24T08:48:36.428Z,85.15
2018-08-24T08:51:03.432Z,84.03
2018-08-24T08:53:30.557Z,84.03
2018-08-24T08:55:57.456Z,84.77
2018-08-24T08:58:24.501Z,83.75
2018-08-24T09:00:51.516Z,83.95
2018-08-24T09:03:18.597Z,83.71
2018-08-24T09:05:45.943Z,84.97
2018-08-24T09:08:13.352Z,85.79
2018-08-24T09:10:40.393Z,84.40
2018-08-24T09:13:07.416Z,83.43
2018-08-24T09:15:34.432Z,82.84
2018-08-24T09:18:07.050Z,83.19
2018-08-24T09:20:40.100Z,82.05
2018-08-24T09:23:13.216Z,82.35
2018-08-24T09:25:45.898Z,82.53
2018-08-24T09:28:22.826Z,82.52
2018-08-24T09:30:53.448Z,83.19
2018-08-24T09:33:20.533Z,83.39
2018-08-24T09:35:47.851Z,83.36
2018-08-24T09:38:15.116Z,82.30
2018-08-24T09:40:47.786Z,82.65
2018-08-24T09:43:20.883Z,83.30
2018-08-24T09:45:47.915Z,83.07
2018-08-24T09:48:21.035Z,83.13
2018-08-24T09:50:54.550Z,84.15
2018-08-24T09:53:27.504Z,83.43
2018-08-24T09:55:54.682Z,83.81
2018-08-24T09:58:21.734Z,84.04
2018-08-24T10:00:54.735Z,83.63
2018-08-24T10:03:27.464Z,84.14
2018-08-24T10:06:00.351Z,83.58
2018-08-24T10:08:34.162Z,83.28
2018-08-24T10:11:03.835Z,83.25
2018-08-24T10:13:30.947Z,83.33
2018-08-24T10:15:57.951Z,82.35
2018-08-24T10:18:24.931Z,82.14
2018-08-24T10:20:51.939Z,79.69
2018-08-24T10:23:18.920Z,78.53
2018-08-24T10:25:45.912Z,79.62
2018-08-24T10:28:13.251Z,79.19
2018-08-24T10:30:40.288Z,77.99
2018-08-24T10:33:07.276Z,77.29
2018-08-24T10:35:34.285Z,76.38
2018-08-24T10:38:01.300Z,76.54
2018-08-24T10:40:28.319Z,77.16
2018-08-24T10:42:55.403Z,75.50
2018-08-24T10:45:22.467Z,74.76
2018-08-24T10:47:49.496Z,73.27
2018-08-24T10:50:16.511Z,74.59
2018-08-24T10:52:43.496Z,73.65
2018-08-24T10:55:10.503Z,72.89
2018-08-24T10:57:37.738Z,72.24
2018-08-24T11:00:05.155Z,72.68
2018-08-24T11:02:32.135Z,71.56
2018-08-24T11:04:59.316Z,71.53
2018-08-24T11:07:26.385Z,70.91
2018-08-24T11:09:53.317Z,69.57
2018-08-24T11:12:20.328Z,70.28
2018-08-24T11:14:47.364Z,70.39
2018-08-24T11:17:14.361Z,70.60
2018-08-24T11:19:41.467Z,68.85
2018-08-24T11:22:08.472Z,67.87
2018-08-24T11:24:35.560Z,67.64
2018-08-24T11:27:02.655Z,66.77
2018-08-24T11:29:29.672Z,66.02
2018-08-24T11:31:56.747Z,63.81
2018-08-24T11:34:23.849Z,64.62
2018-08-24T11:36:50.853Z,65.36
2018-08-24T11:39:17.902Z,67.08
2018-08-24T11:41:45.056Z,65.18
2018-08-24T11:44:12.036Z,66.26
2018-08-24T11:46:39.037Z,64.14
2018-08-24T11:49:06.315Z,63.98
2018-08-24T11:51:33.336Z,64.82
2018-08-24T11:54:01.082Z,64.76
2018-08-24T11:56:28.473Z,63.41
2018-08-24T11:58:55.515Z,67.23
2018-08-24T12:01:22.480Z,66.31
2018-08-24T12:03:49.491Z,64.70
2018-08-24T12:06:16.504Z,62.37
2018-08-24T12:08:50.649Z,60.17
2018-08-24T12:11:17.696Z,61.11
2018-08-24T12:13:44.717Z,63.45
2018-08-24T12:16:11.830Z,64.43
2018-08-24T12:18:39.142Z,63.49
2018-08-24T12:21:06.663Z,61.58
2018-08-24T12:23:33.671Z,58.76
2018-08-24T12:26:00.661Z,58.47
2018-08-24T12:28:27.852Z,55.81
2018-08-24T12:30:54.911Z,52.93
2018-08-24T12:33:22.072Z,50.49
2018-08-24T12:35:49.056Z,49.59
2018-08-24T12:38:16.033Z,49.79
2018-08-24T12:40:43.725Z,48.87
2018-08-24T12:43:10.807Z,46.11
2018-08-24T12:45:37.815Z,45.82
2018-08-24T12:48:05.430Z,45.13
2018-08-24T12:50:32.492Z,45.34
2018-08-24T12:52:59.472Z,45.27
2018-08-24T12:55:26.559Z,43.79
2018-08-24T12:57:53.521Z,44.58
2018-08-24T13:00:20.509Z,44.37
2018-08-24T13:02:47.535Z,43.16
2018-08-24T13:05:14.611Z,43.17
2018-08-24T13:07:41.671Z,42.23
2018-08-24T13:10:08.695Z,44.50
2018-08-24T13:12:35.672Z,47.35
2018-08-24T13:15:03.743Z,49.26
2018-08-24T13:17:30.812Z,50.32
2018-08-24T13:19:57.783Z,52.42
2018-08-24T13:22:24.867Z,53.20
2018-08-24T13:24:51.958Z,53.93
2018-08-24T13:27:19.007Z,53.27
2018-08-24T13:29:46.152Z,54.18
2018-08-24T13:32:13.762Z,55.43
2018-08-24T13:34:40.908Z,56.03
2018-08-24T13:37:08.183Z,57.03
2018-08-24T13:39:35.232Z,55.54
2018-08-24T13:42:03.072Z,54.12
2018-08-24T13:44:30.339Z,55.21
2018-08-24T13:46:57.655Z,54.76
2018-08-24T13:49:24.642Z,55.24
2018-08-24T13:51:51.654Z,55.57
2018-08-24T13:54:18.968Z,54.30
2018-08-24T13:56:46.063Z,54.97
2018-08-24T13:59:13.065Z,54.63
2018-08-24T14:01:40.198Z,54.20
2018-08-24T14:04:07.834Z,53.79
2018-08-24T14:06:35.096Z,53.39
2018-08-24T14:09:02.765Z,51.14
2018-08-24T14:11:29.772Z,51.41
2018-08-24T14:13:59.252Z,50.43
2018-08-24T14:16:26.348Z,50.67
2018-08-24T14:18:53.402Z,50.45
2018-08-24T14:21:20.470Z,52.83
2018-08-24T14:23:48.142Z,53.08
2018-08-24T14:26:15.150Z,54.90
2018-08-24T14:28:42.407Z,54.39
2018-08-24T14:31:09.473Z,56.26
2018-08-24T14:33:36.984Z,58.31
2018-08-24T14:36:04.003Z,58.58
2018-08-24T14:38:31.100Z,58.72
2018-08-24T14:40:58.095Z,56.84
2018-08-24T14:43:25.210Z,55.07
2018-08-24T14:45:52.196Z,56.24
2018-08-24T14:48:19.408Z,56.18
2018-08-24T14:50:46.439Z,57.68
2018-08-24T14:53:13.450Z,57.20
2018-08-24T14:55:40.520Z,56.25
2018-08-24T14:58:07.551Z,56.81
2018-08-24T15:00:34.576Z,56.13
2018-08-24T15:03:01.589Z,56.32
2018-08-24T15:05:28.580Z,55.54
2018-08-24T15:07:55.640Z,56.51
2018-08-24T15:10:22.644Z,55.49
2018-08-24T15:12:49.647Z,54.66
2018-08-24T15:15:16.747Z,57.44
2018-08-24T15:17:43.744Z,56.93
2018-08-24T15:20:10.826Z,56.20
2018-08-24T15:22:37.952Z,57.91
2018-08-24T15:25:04.967Z,57.63
2018-08-24T15:27:31.971Z,59.05
2018-08-24T15:29:59.040Z,59.22
2018-08-24T15:32:25.966Z,60.43
2018-08-24T15:34:53.391Z,59.84
2018-08-24T15:37:20.653Z,59.58
2018-08-24T15:39:47.667Z,58.00
2018-08-24T15:42:14.879Z,58.27
2018-08-24T15:44:42.088Z,56.62
2018-08-24T15:47:09.339Z,57.99
2018-08-24T15:49:36.415Z,57.69
2018-08-24T15:52:03.431Z,58.26
2018-08-24T15:54:30.679Z,58.04
2018-08-24T15:56:57.644Z,58.39
2018-08-24T15:59:24.843Z,59.55
2018-08-24T16:01:51.876Z,59.39
2018-08-24T16:04:19.285Z,59.53
2018-08-24T16:06:46.323Z,60.04
2018-08-24T16:09:13.647Z,59.37
2018-08-24T16:11:40.675Z,59.76
2018-08-24T16:14:09.007Z,59.86
2018-08-24T16:16:36.079Z,60.28
2018-08-24T16:19:03.083Z,59.85
2018-08-24T16:21:30.241Z,59.49
2018-08-24T16:23:57.304Z,60.43
2018-08-24T16:26:25.192Z,61.12
2018-08-24T16:28:52.540Z,61.15
2018-08-24T16:31:19.683Z,62.06
2018-08-24T16:33:46.698Z,61.92
2018-08-24T16:36:14.610Z,61.89
2018-08-24T16:38:42.659Z,63.04
2018-08-24T16:41:09.781Z,68.82
2018-08-24T16:43:36.759Z,71.95
2018-08-24T16:46:03.757Z,71.72
2018-08-24T16:48:30.739Z,72.51
2018-08-24T16:50:57.747Z,72.43
2018-08-24T16:53:24.765Z,72.42
2018-08-24T16:55:52.449Z,74.70
2018-08-24T16:58:19.494Z,72.32
2018-08-24T17:00:46.498Z,73.33
2018-08-24T17:03:13.521Z,72.63
2018-08-24T17:05:40.707Z,69.79
2018-08-24T17:08:07.713Z,70.72
2018-08-24T17:10:34.844Z,72.66
2018-08-24T17:13:01.995Z,72.90
2018-08-24T17:15:29.069Z,74.15
2018-08-24T17:17:56.312Z,75.69
2018-08-24T17:20:23.292Z,75.22
2018-08-24T17:22:50.296Z,75.04
2018-08-24T17:25:17.318Z,75.68
2018-08-24T17:27:44.307Z,76.29
2018-08-24T17:30:11.340Z,76.98
2018-08-24T17:32:38.452Z,76.83
2018-08-24T17:35:06.029Z,76.41
2018-08-24T17:37:33.039Z,77.34
2018-08-24T17:40:00.031Z,77.11
2018-08-24T17:42:27.036Z,76.90
2018-08-24T17:44:54.105Z,76.45
2018-08-24T17:47:21.110Z,77.03
2018-08-24T17:49:48.125Z,75.82
2018-08-24T17:52:15.605Z,76.39
2018-08-24T17:54:42.615Z,76.43
2018-08-24T17:57:09.704Z,75.40
2018-08-24T17:59:36.727Z,76.58
2018-08-24T18:02:04.741Z,75.34
2018-08-24T18:04:31.730Z,74.12
2018-08-24T18:06:58.710Z,73.10
2018-08-24T18:09:25.974Z,70.59
2018-08-24T18:11:52.991Z,70.22
2018-08-24T18:14:20.648Z,68.37
2018-08-24T18:16:47.720Z,67.86
2018-08-24T18:19:14.731Z,68.39
2018-08-24T18:21:42.220Z,67.99
2018-08-24T18:24:10.304Z,67.71
2018-08-24T18:26:37.576Z,67.75
2018-08-24T18:29:05.295Z,68.33
2018-08-24T18:31:32.765Z,68.46
2018-08-24T18:34:00.127Z,68.57
2018-08-24T18:36:27.353Z,68.90
2018-08-24T18:38:54.650Z,69.37
2018-08-24T18:41:21.817Z,68.76
2018-08-24T18:43:48.847Z,69.36
2018-08-24T18:46:16.114Z,69.73
2018-08-24T18:48:43.250Z,71.70
2018-08-24T18:51:10.696Z,69.69
2018-08-24T18:53:37.933Z,69.38
2018-08-24T18:56:05.488Z,69.94
2018-08-24T18:58:32.498Z,70.21
2018-08-24T19:00:59.511Z,70.53
2018-08-24T19:03:26.820Z,70.79
2018-08-24T19:05:54.033Z,70.67
2018-08-24T19:08:21.004Z,70.33
2018-08-24T19:10:54.091Z,70.49
2018-08-24T19:13:21.143Z,70.18
2018-08-24T19:15:48.178Z,71.23
2018-08-24T19:18:21.274Z,71.68
2018-08-24T19:20:54.105Z,72.25
2018-08-24T19:23:21.168Z,71.89
2018-08-24T19:25:48.430Z,72.51
2018-08-24T19:28:21.292Z,74.74
2018-08-24T19:30:48.604Z,71.88
2018-08-24T19:33:15.591Z,73.37
2018-08-24T19:35:42.691Z,73.09
2018-08-24T19:38:09.813Z,72.91
2018-08-24T19:40:42.389Z,73.90
2018-08-24T19:43:09.804Z,73.53
2018-08-24T19:45:36.872Z,74.62
2018-08-24T19:48:10.742Z,75.12
2018-08-24T19:50:37.778Z,75.41
2018-08-24T19:53:05.085Z,75.00
2018-08-24T19:55:32.274Z,75.11
2018-08-24T19:58:05.663Z,76.09
2018-08-24T20:00:33.077Z,76.32
2018-08-24T20:03:00.065Z,76.80
2018-08-24T20:05:27.389Z,77.46
2018-08-24T20:08:00.486Z,78.44
2018-08-24T20:10:28.583Z,79.84
2018-08-24T20:12:55.889Z,80.03
2018-08-24T20:15:28.603Z,81.19
2018-08-24T20:17:55.615Z,82.23
2018-08-24T20:20:22.620Z,82.07
2018-08-24T20:22:49.599Z,82.41
2018-08-24T20:25:16.613Z,81.96
2018-08-24T20:27:43.621Z,81.65
2018-08-24T20:30:10.612Z,81.64
2018-08-24T20:32:37.801Z,81.79
2018-08-24T20:35:04.791Z,81.99
2018-08-24T20:37:32.309Z,82.17
2018-08-24T20:39:59.685Z,81.73
2018-08-24T20:42:26.714Z,81.79
2018-08-24T20:44:53.703Z,82.26
2018-08-24T20:47:20.856Z,82.25
2018-08-24T20:49:47.820Z,82.36
2018-08-24T20:52:14.933Z,82.62
2018-08-24T20:54:41.921Z,82.79
2018-08-24T20:57:08.921Z,83.57
2018-08-24T20:59:35.912Z,83.20
2018-08-24T21:02:03.220Z,83.77
2018-08-24T21:04:30.308Z,83.34
2018-08-24T21:06:57.314Z,84.09
2018-08-24T21:09:24.310Z,84.03
2018-08-24T21:11:52.143Z,84.17
2018-08-24T21:14:19.191Z,84.34
2018-08-24T21:16:46.262Z,83.99
2018-08-24T21:19:13.204Z,83.50
2018-08-24T21:21:40.179Z,83.53
2018-08-24T21:24:09.234Z,83.67
2018-08-24T21:26:36.578Z,83.55
2018-08-24T21:29:03.851Z,82.27
2018-08-24T21:31:30.863Z,82.12
2018-08-24T21:33:58.550Z,82.93
2018-08-24T21:36:27.799Z,82.40
2018-08-24T21:38:56.785Z,82.20
2018-08-24T21:41:25.728Z,83.00
2018-08-24T21:43:54.922Z,82.38
2018-08-24T21:46:25.209Z,82.30
2018-08-24T21:48:54.319Z,82.68
2018-08-24T21:51:21.380Z,82.56
2018-08-24T21:53:48.560Z,83.22
2018-08-24T21:56:15.579Z,84.26
2018-08-24T21:58:42.576Z,85.10
2018-08-24T22:01:09.799Z,85.74
2018-08-24T22:03:36.876Z,86.91
2018-08-24T22:06:04.128Z,87.35
2018-08-24T22:08:31.480Z,87.73
2018-08-24T22:10:58.583Z,87.88
2018-08-24T22:13:25.651Z,88.16
2018-08-24T22:15:52.884Z,88.34
2018-08-24T22:18:19.943Z,88.75
2018-08-24T22:20:46.920Z,89.43
2018-08-24T22:23:14.363Z,89.60
2018-08-24T22:25:41.419Z,89.85
2018-08-24T22:28:08.431Z,90.36
2018-08-24T22:30:35.421Z,90.16
2018-08-24T22:33:02.755Z,90.50
2018-08-24T22:35:29.864Z,91.33
2018-08-24T22:37:56.832Z,91.82
2018-08-24T22:40:23.859Z,92.18
2018-08-24T22:42:51.147Z,92.45
2018-08-24T22:45:18.207Z,92.66
2018-08-24T22:47:45.281Z,93.26
2018-08-24T22:50:12.269Z,93.29
2018-08-24T22:52:39.943Z,93.61
2018-08-24T22:55:07.627Z,93.82
2018-08-24T22:57:34.694Z,94.23
2018-08-24T23:00:01.776Z,94.45
2018-08-24T23:02:28.775Z,94.58
2018-08-24T23:04:55.773Z,94.81
2018-08-24T23:07:23.012Z,94.85
2018-08-24T23:09:50.199Z,95.23
2018-08-24T23:12:17.228Z,95.19
2018-08-24T23:14:44.307Z,95.39
2018-08-24T23:17:11.412Z,95.47
2018-08-24T23:19:38.410Z,95.76
2018-08-24T23:22:05.408Z,95.88
2018-08-24T23:24:32.566Z,95.73
2018-08-24T23:26:59.708Z,95.77
2018-08-24T23:29:26.872Z,96.07
2018-08-24T23:31:53.876Z,95.73
2018-08-24T23:34:20.841Z,96.01
2018-08-24T23:36:47.849Z,96.30
2018-08-24T23:39:14.995Z,96.23
2018-08-24T23:41:42.052Z,96.28
2018-08-24T23:44:09.311Z,96.51
2018-08-24T23:46:36.673Z,96.67
2018-08-24T23:49:03.991Z,96.48
2018-08-24T23:51:30.986Z,96.37
2018-08-24T23:53:58.046Z,96.14
2018-08-24T23:56:25.383Z,96.20
2018-08-24T23:58:52.387Z,96.20
